sensor_id;sensor_type;location;lat;lon;timestamp;P1;durP1;ratioP1;P2;durP2;ratioP2
75071;SDS011;63651;55.728;38.022;2023-05-24T00:01:33;4.47;;;3.55;;
75071;SDS011;63651;55.728;38.022;2023-05-24T00:06:34;5.90;;;3.30;;
75071;SDS011;63651;55.728;38.022;2023-05-24T00:11:36;4.40;;;3.13;;
75071;SDS011;63651;55.728;38.022;2023-05-24T00:16:37;5.13;;;3.85;;
75071;SDS011;63651;55.728;38.022;2023-05-24T00:21:39;7.80;;;3.88;;
75071;SDS011;63651;55.728;38.022;2023-05-24T00:26:40;4.60;;;3.20;;
75071;SDS011;63651;55.728;38.022;2023-05-24T00:31:41;5.53;;;3.30;;
75071;SDS011;63651;55.728;38.022;2023-05-24T00:36:42;4.18;;;3.30;;
75071;SDS011;63651;55.728;38.022;2023-05-24T00:41:43;4.60;;;3.50;;
75071;SDS011;63651;55.728;38.022;2023-05-24T00:46:44;6.30;;;3.28;;
75071;SDS011;63651;55.728;38.022;2023-05-24T00:51:45;6.15;;;3.05;;
75071;SDS011;63651;55.728;38.022;2023-05-24T00:56:48;5.65;;;3.05;;
75071;SDS011;63651;55.728;38.022;2023-05-24T01:01:49;7.45;;;3.35;;
75071;SDS011;63651;55.728;38.022;2023-05-24T01:07:11;5.45;;;3.28;;
75071;SDS011;63651;55.728;38.022;2023-05-24T01:29:04;4.95;;;3.90;;
75071;SDS011;63651;55.728;38.022;2023-05-24T01:34:06;5.22;;;3.83;;
75071;SDS011;63651;55.728;38.022;2023-05-24T01:39:07;5.68;;;3.55;;
75071;SDS011;63651;55.728;38.022;2023-05-24T01:44:14;6.03;;;3.53;;
75071;SDS011;63651;55.728;38.022;2023-05-24T01:49:30;6.75;;;4.10;;
75071;SDS011;63651;55.728;38.022;2023-05-24T01:54:36;4.70;;;3.42;;
75071;SDS011;63651;55.728;38.022;2023-05-24T01:59:42;5.88;;;3.60;;
75071;SDS011;63651;55.728;38.022;2023-05-24T02:04:44;4.68;;;3.88;;
75071;SDS011;63651;55.728;38.022;2023-05-24T02:09:45;7.50;;;3.55;;
75071;SDS011;63651;55.728;38.022;2023-05-24T02:14:46;6.35;;;3.65;;
75071;SDS011;63651;55.728;38.022;2023-05-24T02:20:17;7.40;;;4.00;;
75071;SDS011;63651;55.728;38.022;2023-05-24T02:25:18;7.10;;;4.80;;
75071;SDS011;63651;55.728;38.022;2023-05-24T02:30:19;6.97;;;4.65;;
75071;SDS011;63651;55.728;38.022;2023-05-24T02:35:20;6.53;;;4.28;;
75071;SDS011;63651;55.728;38.022;2023-05-24T02:40:21;6.97;;;4.35;;
75071;SDS011;63651;55.728;38.022;2023-05-24T02:45:22;7.18;;;4.10;;
75071;SDS011;63651;55.728;38.022;2023-05-24T02:50:24;8.00;;;4.97;;
75071;SDS011;63651;55.728;38.022;2023-05-24T02:55:25;8.68;;;5.95;;
75071;SDS011;63651;55.728;38.022;2023-05-24T03:00:26;6.95;;;4.82;;
75071;SDS011;63651;55.728;38.022;2023-05-24T03:05:27;7.55;;;5.00;;
75071;SDS011;63651;55.728;38.022;2023-05-24T03:10:28;6.03;;;4.60;;
75071;SDS011;63651;55.728;38.022;2023-05-24T03:15:29;7.63;;;4.82;;
75071;SDS011;63651;55.728;38.022;2023-05-24T03:20:30;7.00;;;4.82;;
75071;SDS011;63651;55.728;38.022;2023-05-24T03:25:33;5.18;;;4.03;;
75071;SDS011;63651;55.728;38.022;2023-05-24T03:30:34;6.93;;;4.10;;
75071;SDS011;63651;55.728;38.022;2023-05-24T03:35:35;5.88;;;4.85;;
75071;SDS011;63651;55.728;38.022;2023-05-24T03:40:36;7.65;;;4.03;;
75071;SDS011;63651;55.728;38.022;2023-05-24T03:45:38;6.68;;;4.47;;
75071;SDS011;63651;55.728;38.022;2023-05-24T03:50:39;6.43;;;4.38;;
75071;SDS011;63651;55.728;38.022;2023-05-24T03:55:40;7.97;;;4.18;;
75071;SDS011;63651;55.728;38.022;2023-05-24T04:00:41;6.28;;;4.90;;
75071;SDS011;63651;55.728;38.022;2023-05-24T04:05:42;6.15;;;4.68;;
75071;SDS011;63651;55.728;38.022;2023-05-24T04:10:43;6.55;;;4.43;;
75071;SDS011;63651;55.728;38.022;2023-05-24T04:15:44;7.07;;;4.35;;
75071;SDS011;63651;55.728;38.022;2023-05-24T04:26:05;6.05;;;4.07;;
75071;SDS011;63651;55.728;38.022;2023-05-24T04:31:07;7.25;;;3.97;;
75071;SDS011;63651;55.728;38.022;2023-05-24T04:36:26;5.93;;;4.32;;
75071;SDS011;63651;55.728;38.022;2023-05-24T04:41:28;6.28;;;3.92;;
75071;SDS011;63651;55.728;38.022;2023-05-24T04:46:31;8.70;;;4.68;;
75071;SDS011;63651;55.728;38.022;2023-05-24T04:51:35;6.10;;;4.32;;
75071;SDS011;63651;55.728;38.022;2023-05-24T04:56:38;5.57;;;4.20;;
75071;SDS011;63651;55.728;38.022;2023-05-24T05:01:57;6.03;;;4.43;;
75071;SDS011;63651;55.728;38.022;2023-05-24T05:07:17;5.90;;;4.10;;
75071;SDS011;63651;55.728;38.022;2023-05-24T05:12:18;5.50;;;3.90;;
75071;SDS011;63651;55.728;38.022;2023-05-24T05:22:38;7.15;;;4.88;;
75071;SDS011;63651;55.728;38.022;2023-05-24T05:27:45;9.98;;;6.20;;
75071;SDS011;63651;55.728;38.022;2023-05-24T05:33:04;8.60;;;5.13;;
75071;SDS011;63651;55.728;38.022;2023-05-24T05:38:05;8.63;;;5.60;;
75071;SDS011;63651;55.728;38.022;2023-05-24T05:43:06;6.72;;;5.28;;
75071;SDS011;63651;55.728;38.022;2023-05-24T05:48:08;8.40;;;4.88;;
75071;SDS011;63651;55.728;38.022;2023-05-24T05:53:10;7.40;;;4.60;;
75071;SDS011;63651;55.728;38.022;2023-05-24T05:58:11;7.57;;;4.72;;
75071;SDS011;63651;55.728;38.022;2023-05-24T06:03:30;7.90;;;4.63;;
75071;SDS011;63651;55.728;38.022;2023-05-24T06:08:31;7.22;;;4.70;;
75071;SDS011;63651;55.728;38.022;2023-05-24T06:13:34;6.95;;;4.15;;
75071;SDS011;63651;55.728;38.022;2023-05-24T06:18:35;8.10;;;4.28;;
75071;SDS011;63651;55.728;38.022;2023-05-24T06:23:36;8.85;;;5.03;;
75071;SDS011;63651;55.728;38.022;2023-05-24T06:34:16;6.03;;;5.00;;
75071;SDS011;63651;55.728;38.022;2023-05-24T06:39:20;7.78;;;4.70;;
75071;SDS011;63651;55.728;38.022;2023-05-24T06:44:22;7.10;;;4.97;;
75071;SDS011;63651;55.728;38.022;2023-05-24T06:49:23;7.00;;;5.90;;
75071;SDS011;63651;55.728;38.022;2023-05-24T06:54:24;8.27;;;4.78;;
75071;SDS011;63651;55.728;38.022;2023-05-24T06:59:25;6.55;;;4.05;;
75071;SDS011;63651;55.728;38.022;2023-05-24T07:04:26;7.30;;;4.80;;
75071;SDS011;63651;55.728;38.022;2023-05-24T07:09:28;6.88;;;4.78;;
75071;SDS011;63651;55.728;38.022;2023-05-24T07:14:29;5.25;;;4.63;;
75071;SDS011;63651;55.728;38.022;2023-05-24T07:19:31;6.10;;;4.60;;
75071;SDS011;63651;55.728;38.022;2023-05-24T07:24:34;7.13;;;4.57;;
75071;SDS011;63651;55.728;38.022;2023-05-24T07:29:35;6.13;;;4.82;;
75071;SDS011;63651;55.728;38.022;2023-05-24T07:34:36;6.07;;;4.40;;
75071;SDS011;63651;55.728;38.022;2023-05-24T07:39:39;6.18;;;3.83;;
75071;SDS011;63651;55.728;38.022;2023-05-24T07:44:40;8.93;;;4.40;;
75071;SDS011;63651;55.728;38.022;2023-05-24T07:49:41;5.97;;;4.32;;
75071;SDS011;63651;55.728;38.022;2023-05-24T07:54:42;5.28;;;4.35;;
75071;SDS011;63651;55.728;38.022;2023-05-24T07:59:44;8.23;;;4.03;;
75071;SDS011;63651;55.728;38.022;2023-05-24T08:04:45;4.57;;;3.70;;
75071;SDS011;63651;55.728;38.022;2023-05-24T08:09:46;8.07;;;4.68;;
75071;SDS011;63651;55.728;38.022;2023-05-24T08:14:48;7.68;;;4.50;;
75071;SDS011;63651;55.728;38.022;2023-05-24T08:19:49;4.93;;;4.18;;
75071;SDS011;63651;55.728;38.022;2023-05-24T08:24:50;4.32;;;3.78;;
75071;SDS011;63651;55.728;38.022;2023-05-24T08:29:51;7.80;;;4.75;;
75071;SDS011;63651;55.728;38.022;2023-05-24T08:34:53;7.00;;;4.75;;
75071;SDS011;63651;55.728;38.022;2023-05-24T08:39:55;8.43;;;4.15;;
75071;SDS011;63651;55.728;38.022;2023-05-24T08:45:11;5.97;;;4.32;;
75071;SDS011;63651;55.728;38.022;2023-05-24T08:50:14;5.47;;;4.80;;
75071;SDS011;63651;55.728;38.022;2023-05-24T08:55:15;7.22;;;4.75;;
75071;SDS011;63651;55.728;38.022;2023-05-24T09:00:17;6.68;;;4.82;;
75071;SDS011;63651;55.728;38.022;2023-05-24T09:05:18;6.82;;;3.80;;
75071;SDS011;63651;55.728;38.022;2023-05-24T09:10:21;5.80;;;4.20;;
75071;SDS011;63651;55.728;38.022;2023-05-24T09:15:23;5.82;;;4.40;;
75071;SDS011;63651;55.728;38.022;2023-05-24T09:20:25;6.95;;;4.70;;
75071;SDS011;63651;55.728;38.022;2023-05-24T09:25:26;5.25;;;3.80;;
75071;SDS011;63651;55.728;38.022;2023-05-24T09:30:29;5.55;;;3.47;;
75071;SDS011;63651;55.728;38.022;2023-05-24T09:35:30;6.45;;;3.85;;
75071;SDS011;63651;55.728;38.022;2023-05-24T09:40:31;4.65;;;3.35;;
75071;SDS011;63651;55.728;38.022;2023-05-24T09:45:36;6.05;;;4.22;;
75071;SDS011;63651;55.728;38.022;2023-05-24T09:56:18;4.75;;;3.65;;
75071;SDS011;63651;55.728;38.022;2023-05-24T10:01:21;5.68;;;3.63;;
75071;SDS011;63651;55.728;38.022;2023-05-24T10:06:24;6.60;;;3.83;;
75071;SDS011;63651;55.728;38.022;2023-05-24T10:11:25;6.05;;;3.58;;
75071;SDS011;63651;55.728;38.022;2023-05-24T10:16:27;6.55;;;4.22;;
75071;SDS011;63651;55.728;38.022;2023-05-24T10:21:28;4.38;;;3.80;;
75071;SDS011;63651;55.728;38.022;2023-05-24T10:26:32;7.25;;;4.70;;
75071;SDS011;63651;55.728;38.022;2023-05-24T10:31:35;5.80;;;4.45;;
75071;SDS011;63651;55.728;38.022;2023-05-24T10:36:39;4.95;;;3.92;;
75071;SDS011;63651;55.728;38.022;2023-05-24T10:41:41;6.13;;;4.05;;
75071;SDS011;63651;55.728;38.022;2023-05-24T10:52:11;6.97;;;4.30;;
75071;SDS011;63651;55.728;38.022;2023-05-24T10:57:13;6.65;;;4.47;;
75071;SDS011;63651;55.728;38.022;2023-05-24T11:02:25;5.80;;;4.30;;
75071;SDS011;63651;55.728;38.022;2023-05-24T11:07:27;9.45;;;4.88;;
75071;SDS011;63651;55.728;38.022;2023-05-24T11:12:29;8.15;;;4.53;;
75071;SDS011;63651;55.728;38.022;2023-05-24T11:23:13;5.90;;;5.05;;
75071;SDS011;63651;55.728;38.022;2023-05-24T11:28:15;7.03;;;4.50;;
75071;SDS011;63651;55.728;38.022;2023-05-24T11:33:17;7.57;;;4.22;;
75071;SDS011;63651;55.728;38.022;2023-05-24T11:38:20;8.38;;;4.90;;
75071;SDS011;63651;55.728;38.022;2023-05-24T11:43:21;5.93;;;4.47;;
75071;SDS011;63651;55.728;38.022;2023-05-24T11:48:23;6.90;;;4.78;;
75071;SDS011;63651;55.728;38.022;2023-05-24T11:53:24;8.48;;;4.78;;
75071;SDS011;63651;55.728;38.022;2023-05-24T11:58:31;7.28;;;4.70;;
75071;SDS011;63651;55.728;38.022;2023-05-24T12:03:40;7.93;;;6.25;;
75071;SDS011;63651;55.728;38.022;2023-05-24T12:08:42;8.68;;;4.88;;
75071;SDS011;63651;55.728;38.022;2023-05-24T12:13:43;12.80;;;5.63;;
75071;SDS011;63651;55.728;38.022;2023-05-24T12:18:44;9.88;;;5.13;;
75071;SDS011;63651;55.728;38.022;2023-05-24T12:23:46;11.88;;;4.63;;
75071;SDS011;63651;55.728;38.022;2023-05-24T12:28:51;8.55;;;5.10;;
75071;SDS011;63651;55.728;38.022;2023-05-24T12:33:58;7.93;;;4.60;;
75071;SDS011;63651;55.728;38.022;2023-05-24T12:38:59;8.05;;;4.25;;
75071;SDS011;63651;55.728;38.022;2023-05-24T12:44:04;5.82;;;4.55;;
75071;SDS011;63651;55.728;38.022;2023-05-24T12:49:05;10.10;;;4.60;;
75071;SDS011;63651;55.728;38.022;2023-05-24T12:54:06;7.53;;;4.72;;
75071;SDS011;63651;55.728;38.022;2023-05-24T12:59:07;8.93;;;4.68;;
75071;SDS011;63651;55.728;38.022;2023-05-24T13:04:09;7.68;;;4.90;;
75071;SDS011;63651;55.728;38.022;2023-05-24T13:09:13;9.30;;;5.20;;
75071;SDS011;63651;55.728;38.022;2023-05-24T13:14:15;9.60;;;5.07;;
75071;SDS011;63651;55.728;38.022;2023-05-24T13:19:17;7.47;;;4.53;;
75071;SDS011;63651;55.728;38.022;2023-05-24T13:24:18;9.35;;;4.55;;
75071;SDS011;63651;55.728;38.022;2023-05-24T13:29:20;8.07;;;4.90;;
75071;SDS011;63651;55.728;38.022;2023-05-24T13:34:22;7.45;;;5.20;;
75071;SDS011;63651;55.728;38.022;2023-05-24T13:39:25;8.25;;;4.47;;
75071;SDS011;63651;55.728;38.022;2023-05-24T13:44:27;8.45;;;4.20;;
75071;SDS011;63651;55.728;38.022;2023-05-24T13:49:29;6.30;;;4.40;;
75071;SDS011;63651;55.728;38.022;2023-05-24T13:54:30;8.57;;;4.88;;
75071;SDS011;63651;55.728;38.022;2023-05-24T13:59:31;7.05;;;4.63;;
75071;SDS011;63651;55.728;38.022;2023-05-24T14:04:33;8.80;;;4.53;;
75071;SDS011;63651;55.728;38.022;2023-05-24T14:09:34;9.98;;;5.10;;
75071;SDS011;63651;55.728;38.022;2023-05-24T14:14:36;6.45;;;4.53;;
75071;SDS011;63651;55.728;38.022;2023-05-24T14:19:37;6.93;;;5.10;;
75071;SDS011;63651;55.728;38.022;2023-05-24T14:24:38;7.07;;;5.28;;
75071;SDS011;63651;55.728;38.022;2023-05-24T14:29:39;9.23;;;6.47;;
75071;SDS011;63651;55.728;38.022;2023-05-24T14:34:40;11.48;;;6.28;;
75071;SDS011;63651;55.728;38.022;2023-05-24T14:39:42;8.23;;;5.78;;
75071;SDS011;63651;55.728;38.022;2023-05-24T14:44:43;8.80;;;5.47;;
75071;SDS011;63651;55.728;38.022;2023-05-24T14:49:44;8.25;;;5.13;;
75071;SDS011;63651;55.728;38.022;2023-05-24T14:54:45;15.60;;;6.47;;
75071;SDS011;63651;55.728;38.022;2023-05-24T14:59:46;8.90;;;5.72;;
75071;SDS011;63651;55.728;38.022;2023-05-24T15:04:47;11.45;;;5.97;;
75071;SDS011;63651;55.728;38.022;2023-05-24T15:09:48;8.95;;;5.43;;
75071;SDS011;63651;55.728;38.022;2023-05-24T15:14:49;10.48;;;5.80;;
75071;SDS011;63651;55.728;38.022;2023-05-24T15:19:50;7.10;;;4.97;;
75071;SDS011;63651;55.728;38.022;2023-05-24T15:24:53;8.65;;;5.45;;
75071;SDS011;63651;55.728;38.022;2023-05-24T15:29:54;8.90;;;5.25;;
75071;SDS011;63651;55.728;38.022;2023-05-24T15:34:58;8.90;;;6.28;;
75071;SDS011;63651;55.728;38.022;2023-05-24T15:40:02;10.07;;;5.30;;
75071;SDS011;63651;55.728;38.022;2023-05-24T15:45:04;8.43;;;6.30;;
75071;SDS011;63651;55.728;38.022;2023-05-24T15:50:07;13.52;;;7.68;;
75071;SDS011;63651;55.728;38.022;2023-05-24T15:55:08;12.13;;;7.60;;
75071;SDS011;63651;55.728;38.022;2023-05-24T16:00:09;9.73;;;6.55;;
75071;SDS011;63651;55.728;38.022;2023-05-24T16:05:11;10.48;;;6.05;;
75071;SDS011;63651;55.728;38.022;2023-05-24T16:10:12;8.68;;;6.10;;
75071;SDS011;63651;55.728;38.022;2023-05-24T16:15:13;9.75;;;6.03;;
75071;SDS011;63651;55.728;38.022;2023-05-24T16:20:14;9.40;;;6.35;;
75071;SDS011;63651;55.728;38.022;2023-05-24T16:25:16;9.23;;;6.50;;
75071;SDS011;63651;55.728;38.022;2023-05-24T16:30:17;12.35;;;7.57;;
75071;SDS011;63651;55.728;38.022;2023-05-24T16:35:18;10.98;;;8.82;;
75071;SDS011;63651;55.728;38.022;2023-05-24T16:40:37;18.55;;;8.88;;
75071;SDS011;63651;55.728;38.022;2023-05-24T16:45:41;12.32;;;7.13;;
75071;SDS011;63651;55.728;38.022;2023-05-24T16:50:42;9.43;;;7.03;;
75071;SDS011;63651;55.728;38.022;2023-05-24T16:55:43;13.00;;;9.43;;
75071;SDS011;63651;55.728;38.022;2023-05-24T17:00:45;13.23;;;6.63;;
75071;SDS011;63651;55.728;38.022;2023-05-24T17:05:46;8.95;;;6.47;;
75071;SDS011;63651;55.728;38.022;2023-05-24T17:10:48;11.73;;;7.20;;
75071;SDS011;63651;55.728;38.022;2023-05-24T17:15:55;13.90;;;6.50;;
75071;SDS011;63651;55.728;38.022;2023-05-24T17:20:58;11.20;;;7.07;;
75071;SDS011;63651;55.728;38.022;2023-05-24T17:26:01;11.25;;;7.47;;
75071;SDS011;63651;55.728;38.022;2023-05-24T17:31:03;13.63;;;8.15;;
75071;SDS011;63651;55.728;38.022;2023-05-24T17:36:04;14.35;;;8.52;;
75071;SDS011;63651;55.728;38.022;2023-05-24T17:41:05;16.80;;;9.43;;
75071;SDS011;63651;55.728;38.022;2023-05-24T17:46:08;16.65;;;8.32;;
75071;SDS011;63651;55.728;38.022;2023-05-24T17:51:10;13.02;;;8.00;;
75071;SDS011;63651;55.728;38.022;2023-05-24T17:56:12;14.65;;;8.68;;
75071;SDS011;63651;55.728;38.022;2023-05-24T18:01:13;17.42;;;10.70;;
75071;SDS011;63651;55.728;38.022;2023-05-24T18:06:14;13.02;;;9.15;;
75071;SDS011;63651;55.728;38.022;2023-05-24T18:11:15;14.43;;;8.18;;
75071;SDS011;63651;55.728;38.022;2023-05-24T18:16:17;10.52;;;8.00;;
75071;SDS011;63651;55.728;38.022;2023-05-24T18:21:18;15.63;;;8.10;;
75071;SDS011;63651;55.728;38.022;2023-05-24T18:26:19;12.30;;;7.55;;
75071;SDS011;63651;55.728;38.022;2023-05-24T18:31:39;12.38;;;8.13;;
75071;SDS011;63651;55.728;38.022;2023-05-24T18:36:40;7.47;;;6.60;;
75071;SDS011;63651;55.728;38.022;2023-05-24T18:41:41;7.47;;;6.10;;
75071;SDS011;63651;55.728;38.022;2023-05-24T18:46:42;7.57;;;6.03;;
75071;SDS011;63651;55.728;38.022;2023-05-24T18:51:43;8.82;;;6.35;;
75071;SDS011;63651;55.728;38.022;2023-05-24T18:56:44;7.40;;;5.95;;
75071;SDS011;63651;55.728;38.022;2023-05-24T19:01:45;7.90;;;6.40;;
75071;SDS011;63651;55.728;38.022;2023-05-24T19:06:47;10.77;;;6.95;;
75071;SDS011;63651;55.728;38.022;2023-05-24T19:11:48;6.45;;;5.85;;
75071;SDS011;63651;55.728;38.022;2023-05-24T19:16:49;7.20;;;6.05;;
75071;SDS011;63651;55.728;38.022;2023-05-24T19:21:50;7.32;;;6.15;;
75071;SDS011;63651;55.728;38.022;2023-05-24T19:27:10;9.93;;;7.32;;
75071;SDS011;63651;55.728;38.022;2023-05-24T19:32:11;7.72;;;6.68;;
75071;SDS011;63651;55.728;38.022;2023-05-24T19:37:12;8.57;;;7.47;;
75071;SDS011;63651;55.728;38.022;2023-05-24T19:42:15;10.55;;;7.88;;
75071;SDS011;63651;55.728;38.022;2023-05-24T19:47:16;9.80;;;7.35;;
75071;SDS011;63651;55.728;38.022;2023-05-24T19:52:17;8.68;;;7.50;;
75071;SDS011;63651;55.728;38.022;2023-05-24T19:57:20;11.35;;;7.75;;
75071;SDS011;63651;55.728;38.022;2023-05-24T20:02:21;11.02;;;7.97;;
75071;SDS011;63651;55.728;38.022;2023-05-24T20:07:22;9.93;;;8.38;;
75071;SDS011;63651;55.728;38.022;2023-05-24T20:12:23;10.50;;;8.38;;
75071;SDS011;63651;55.728;38.022;2023-05-24T20:17:24;11.25;;;8.25;;
75071;SDS011;63651;55.728;38.022;2023-05-24T20:22:25;13.05;;;8.48;;
75071;SDS011;63651;55.728;38.022;2023-05-24T20:27:26;14.13;;;9.50;;
75071;SDS011;63651;55.728;38.022;2023-05-24T20:32:27;10.93;;;8.82;;
75071;SDS011;63651;55.728;38.022;2023-05-24T20:37:28;10.73;;;8.55;;
75071;SDS011;63651;55.728;38.022;2023-05-24T20:42:30;9.98;;;8.80;;
75071;SDS011;63651;55.728;38.022;2023-05-24T20:47:31;11.48;;;9.00;;
75071;SDS011;63651;55.728;38.022;2023-05-24T20:52:32;10.40;;;9.32;;
75071;SDS011;63651;55.728;38.022;2023-05-24T20:57:34;11.52;;;9.70;;
75071;SDS011;63651;55.728;38.022;2023-05-24T21:02:35;12.55;;;11.25;;
75071;SDS011;63651;55.728;38.022;2023-05-24T21:07:37;12.40;;;9.38;;
75071;SDS011;63651;55.728;38.022;2023-05-24T21:12:38;12.05;;;9.50;;
75071;SDS011;63651;55.728;38.022;2023-05-24T21:17:39;12.55;;;11.25;;
75071;SDS011;63651;55.728;38.022;2023-05-24T21:22:40;12.00;;;9.45;;
75071;SDS011;63651;55.728;38.022;2023-05-24T21:27:42;11.65;;;10.07;;
75071;SDS011;63651;55.728;38.022;2023-05-24T21:32:43;14.50;;;11.45;;
75071;SDS011;63651;55.728;38.022;2023-05-24T21:37:44;14.50;;;11.25;;
75071;SDS011;63651;55.728;38.022;2023-05-24T21:42:46;13.25;;;10.77;;
75071;SDS011;63651;55.728;38.022;2023-05-24T21:47:47;14.55;;;11.23;;
75071;SDS011;63651;55.728;38.022;2023-05-24T21:52:48;15.40;;;11.23;;
75071;SDS011;63651;55.728;38.022;2023-05-24T21:57:49;16.38;;;10.90;;
75071;SDS011;63651;55.728;38.022;2023-05-24T22:02:51;15.73;;;10.13;;
75071;SDS011;63651;55.728;38.022;2023-05-24T22:07:52;12.82;;;10.70;;
75071;SDS011;63651;55.728;38.022;2023-05-24T22:12:54;11.68;;;9.95;;
75071;SDS011;63651;55.728;38.022;2023-05-24T22:17:55;11.77;;;10.57;;
75071;SDS011;63651;55.728;38.022;2023-05-24T22:22:58;11.48;;;9.15;;
75071;SDS011;63651;55.728;38.022;2023-05-24T22:27:59;10.32;;;8.85;;
75071;SDS011;63651;55.728;38.022;2023-05-24T22:33:02;12.20;;;9.93;;
75071;SDS011;63651;55.728;38.022;2023-05-24T22:38:03;13.73;;;9.52;;
75071;SDS011;63651;55.728;38.022;2023-05-24T22:43:04;12.80;;;10.25;;
75071;SDS011;63651;55.728;38.022;2023-05-24T22:48:05;10.32;;;9.20;;
75071;SDS011;63651;55.728;38.022;2023-05-24T22:53:07;13.65;;;9.95;;
75071;SDS011;63651;55.728;38.022;2023-05-24T22:58:08;12.95;;;11.20;;
75071;SDS011;63651;55.728;38.022;2023-05-24T23:03:09;11.57;;;9.63;;
75071;SDS011;63651;55.728;38.022;2023-05-24T23:08:11;13.23;;;9.45;;
75071;SDS011;63651;55.728;38.022;2023-05-24T23:13:13;11.55;;;9.52;;
75071;SDS011;63651;55.728;38.022;2023-05-24T23:18:16;14.07;;;10.57;;
75071;SDS011;63651;55.728;38.022;2023-05-24T23:23:22;13.50;;;10.32;;
75071;SDS011;63651;55.728;38.022;2023-05-24T23:28:24;11.95;;;10.02;;
75071;SDS011;63651;55.728;38.022;2023-05-24T23:33:25;13.77;;;10.80;;
75071;SDS011;63651;55.728;38.022;2023-05-24T23:38:26;11.02;;;9.45;;
75071;SDS011;63651;55.728;38.022;2023-05-24T23:43:27;12.45;;;11.15;;
75071;SDS011;63651;55.728;38.022;2023-05-24T23:48:28;12.90;;;11.00;;
75071;SDS011;63651;55.728;38.022;2023-05-24T23:53:29;13.70;;;9.68;;
75071;SDS011;63651;55.728;38.022;2023-05-24T23:58:30;11.90;;;9.70;;
